sensor_id;sensor_type;location;lat;lon;timestamp;P1;durP1;ratioP1;P2;durP2;ratioP2
12118;SDS011;6123;48.864;9.200;2022-09-27T00:01:01;0.70;;;0.65;;
12118;SDS011;6123;48.864;9.200;2022-09-27T00:03:29;0.90;;;0.90;;
12118;SDS011;6123;48.864;9.200;2022-09-27T00:08:30;1.42;;;0.60;;
12118;SDS011;6123;48.864;9.200;2022-09-27T00:11:01;1.08;;;0.98;;
12118;SDS011;6123;48.864;9.200;2022-09-27T00:13:53;0.90;;;0.90;;
12118;SDS011;6123;48.864;9.200;2022-09-27T00:16:21;1.35;;;0.90;;
12118;SDS011;6123;48.864;9.200;2022-09-27T00:18:47;1.13;;;0.90;;
12118;SDS011;6123;48.864;9.200;2022-09-27T00:21:13;1.20;;;0.90;;
12118;SDS011;6123;48.864;9.200;2022-09-27T00:23:39;0.90;;;0.80;;
12118;SDS011;6123;48.864;9.200;2022-09-27T00:26:09;1.20;;;0.70;;
12118;SDS011;6123;48.864;9.200;2022-09-27T00:28:36;0.70;;;0.70;;
12118;SDS011;6123;48.864;9.200;2022-09-27T00:31:02;0.80;;;0.80;;
12118;SDS011;6123;48.864;9.200;2022-09-27T00:33:27;1.13;;;0.70;;
12118;SDS011;6123;48.864;9.200;2022-09-27T00:35:53;0.77;;;0.77;;
12118;SDS011;6123;48.864;9.200;2022-09-27T00:38:29;0.95;;;0.68;;
12118;SDS011;6123;48.864;9.200;2022-09-27T00:40:54;0.73;;;0.60;;
12118;SDS011;6123;48.864;9.200;2022-09-27T00:43:21;0.60;;;0.60;;
12118;SDS011;6123;48.864;9.200;2022-09-27T00:45:55;0.60;;;0.60;;
12118;SDS011;6123;48.864;9.200;2022-09-27T00:48:24;0.70;;;0.70;;
12118;SDS011;6123;48.864;9.200;2022-09-27T00:50:54;0.75;;;0.45;;
12118;SDS011;6123;48.864;9.200;2022-09-27T00:53:30;0.50;;;0.50;;
12118;SDS011;6123;48.864;9.200;2022-09-27T00:56:07;0.50;;;0.50;;
12118;SDS011;6123;48.864;9.200;2022-09-27T00:58:38;1.95;;;0.68;;
12118;SDS011;6123;48.864;9.200;2022-09-27T01:01:12;0.73;;;0.50;;
12118;SDS011;6123;48.864;9.200;2022-09-27T01:06:23;0.88;;;0.70;;
12118;SDS011;6123;48.864;9.200;2022-09-27T01:08:48;0.50;;;0.50;;
12118;SDS011;6123;48.864;9.200;2022-09-27T01:11:34;0.32;;;0.32;;
12118;SDS011;6123;48.864;9.200;2022-09-27T01:19:49;0.50;;;0.50;;
12118;SDS011;6123;48.864;9.200;2022-09-27T01:22:45;0.70;;;0.60;;
12118;SDS011;6123;48.864;9.200;2022-09-27T01:28:20;0.60;;;0.60;;
12118;SDS011;6123;48.864;9.200;2022-09-27T01:33:42;1.27;;;0.60;;
12118;SDS011;6123;48.864;9.200;2022-09-27T01:36:17;1.52;;;0.47;;
12118;SDS011;6123;48.864;9.200;2022-09-27T01:45:03;0.73;;;0.60;;
12118;SDS011;6123;48.864;9.200;2022-09-27T01:47:14;0.50;;;0.40;;
12118;SDS011;6123;48.864;9.200;2022-09-27T01:52:35;0.57;;;0.57;;
12118;SDS011;6123;48.864;9.200;2022-09-27T01:55:15;0.60;;;0.50;;
12118;SDS011;6123;48.864;9.200;2022-09-27T02:00:43;0.80;;;0.80;;
12118;SDS011;6123;48.864;9.200;2022-09-27T02:03:12;0.43;;;0.40;;
12118;SDS011;6123;48.864;9.200;2022-09-27T02:05:56;1.65;;;0.35;;
12118;SDS011;6123;48.864;9.200;2022-09-27T02:08:37;0.65;;;0.50;;
12118;SDS011;6123;48.864;9.200;2022-09-27T02:11:10;2.13;;;0.77;;
12118;SDS011;6123;48.864;9.200;2022-09-27T02:21:22;0.60;;;0.60;;
12118;SDS011;6123;48.864;9.200;2022-09-27T02:23:57;0.70;;;0.60;;
12118;SDS011;6123;48.864;9.200;2022-09-27T02:29:37;0.82;;;0.60;;
12118;SDS011;6123;48.864;9.200;2022-09-27T02:32:24;1.92;;;0.70;;
12118;SDS011;6123;48.864;9.200;2022-09-27T02:34:50;2.17;;;0.70;;
12118;SDS011;6123;48.864;9.200;2022-09-27T02:37:17;0.68;;;0.52;;
12118;SDS011;6123;48.864;9.200;2022-09-27T02:39:43;0.38;;;0.38;;
12118;SDS011;6123;48.864;9.200;2022-09-27T02:42:11;0.95;;;0.52;;
12118;SDS011;6123;48.864;9.200;2022-09-27T02:44:40;0.88;;;0.30;;
12118;SDS011;6123;48.864;9.200;2022-09-27T02:49:59;0.90;;;0.60;;
12118;SDS011;6123;48.864;9.200;2022-09-27T02:55:12;2.25;;;0.52;;
12118;SDS011;6123;48.864;9.200;2022-09-27T03:00:32;2.75;;;0.80;;
12118;SDS011;6123;48.864;9.200;2022-09-27T03:06:19;1.23;;;0.60;;
12118;SDS011;6123;48.864;9.200;2022-09-27T03:08:50;0.80;;;0.63;;
12118;SDS011;6123;48.864;9.200;2022-09-27T03:11:16;1.13;;;0.73;;
12118;SDS011;6123;48.864;9.200;2022-09-27T03:13:43;1.00;;;0.63;;
12118;SDS011;6123;48.864;9.200;2022-09-27T03:16:09;2.53;;;0.75;;
12118;SDS011;6123;48.864;9.200;2022-09-27T03:18:35;1.15;;;0.80;;
12118;SDS011;6123;48.864;9.200;2022-09-27T03:21:01;2.78;;;1.30;;
12118;SDS011;6123;48.864;9.200;2022-09-27T03:23:29;1.60;;;1.00;;
12118;SDS011;6123;48.864;9.200;2022-09-27T03:25:55;1.70;;;1.10;;
12118;SDS011;6123;48.864;9.200;2022-09-27T03:28:21;2.25;;;0.90;;
12118;SDS011;6123;48.864;9.200;2022-09-27T03:30:49;3.95;;;1.73;;
12118;SDS011;6123;48.864;9.200;2022-09-27T03:33:15;3.35;;;1.67;;
12118;SDS011;6123;48.864;9.200;2022-09-27T03:35:42;1.75;;;1.20;;
12118;SDS011;6123;48.864;9.200;2022-09-27T03:38:07;4.53;;;1.65;;
12118;SDS011;6123;48.864;9.200;2022-09-27T03:40:34;1.90;;;1.60;;
12118;SDS011;6123;48.864;9.200;2022-09-27T03:43:03;3.45;;;1.30;;
12118;SDS011;6123;48.864;9.200;2022-09-27T03:45:28;3.28;;;1.48;;
12118;SDS011;6123;48.864;9.200;2022-09-27T03:47:54;6.32;;;1.88;;
12118;SDS011;6123;48.864;9.200;2022-09-27T03:50:22;2.88;;;1.55;;
12118;SDS011;6123;48.864;9.200;2022-09-27T03:52:48;2.92;;;1.65;;
12118;SDS011;6123;48.864;9.200;2022-09-27T03:55:13;3.78;;;1.67;;
12118;SDS011;6123;48.864;9.200;2022-09-27T03:57:43;3.60;;;1.75;;
12118;SDS011;6123;48.864;9.200;2022-09-27T04:00:09;4.00;;;1.65;;
12118;SDS011;6123;48.864;9.200;2022-09-27T04:02:35;3.55;;;1.80;;
12118;SDS011;6123;48.864;9.200;2022-09-27T04:05:03;2.80;;;2.05;;
12118;SDS011;6123;48.864;9.200;2022-09-27T04:07:29;3.10;;;1.63;;
12118;SDS011;6123;48.864;9.200;2022-09-27T04:09:57;3.42;;;1.88;;
12118;SDS011;6123;48.864;9.200;2022-09-27T04:12:23;4.85;;;1.77;;
12118;SDS011;6123;48.864;9.200;2022-09-27T04:14:49;3.53;;;1.92;;
12118;SDS011;6123;48.864;9.200;2022-09-27T04:17:14;3.30;;;2.20;;
12118;SDS011;6123;48.864;9.200;2022-09-27T04:19:40;5.82;;;2.05;;
12118;SDS011;6123;48.864;9.200;2022-09-27T04:22:08;5.75;;;2.20;;
12118;SDS011;6123;48.864;9.200;2022-09-27T04:24:33;3.03;;;1.98;;
12118;SDS011;6123;48.864;9.200;2022-09-27T04:27:01;3.22;;;1.77;;
12118;SDS011;6123;48.864;9.200;2022-09-27T04:29:27;3.30;;;2.10;;
12118;SDS011;6123;48.864;9.200;2022-09-27T04:31:53;3.38;;;1.80;;
12118;SDS011;6123;48.864;9.200;2022-09-27T04:34:19;3.25;;;1.65;;
12118;SDS011;6123;48.864;9.200;2022-09-27T04:37:04;4.72;;;2.25;;
12118;SDS011;6123;48.864;9.200;2022-09-27T04:39:30;5.15;;;2.45;;
12118;SDS011;6123;48.864;9.200;2022-09-27T04:41:58;4.13;;;1.98;;
12118;SDS011;6123;48.864;9.200;2022-09-27T04:44:24;3.00;;;2.08;;
12118;SDS011;6123;48.864;9.200;2022-09-27T04:46:49;4.43;;;1.92;;
12118;SDS011;6123;48.864;9.200;2022-09-27T04:49:15;4.53;;;2.17;;
12118;SDS011;6123;48.864;9.200;2022-09-27T04:51:41;2.70;;;1.70;;
12118;SDS011;6123;48.864;9.200;2022-09-27T04:54:08;4.40;;;2.10;;
12118;SDS011;6123;48.864;9.200;2022-09-27T04:56:34;3.33;;;1.73;;
12118;SDS011;6123;48.864;9.200;2022-09-27T04:59:00;3.80;;;1.80;;
12118;SDS011;6123;48.864;9.200;2022-09-27T05:01:25;3.25;;;1.80;;
12118;SDS011;6123;48.864;9.200;2022-09-27T05:03:51;6.07;;;2.05;;
12118;SDS011;6123;48.864;9.200;2022-09-27T05:06:17;4.32;;;1.85;;
12118;SDS011;6123;48.864;9.200;2022-09-27T05:08:42;5.63;;;1.88;;
12118;SDS011;6123;48.864;9.200;2022-09-27T05:11:09;3.05;;;1.75;;
12118;SDS011;6123;48.864;9.200;2022-09-27T05:13:35;2.15;;;1.60;;
12118;SDS011;6123;48.864;9.200;2022-09-27T05:16:01;3.10;;;1.55;;
12118;SDS011;6123;48.864;9.200;2022-09-27T05:18:28;3.65;;;1.50;;
12118;SDS011;6123;48.864;9.200;2022-09-27T05:20:53;2.83;;;1.45;;
12118;SDS011;6123;48.864;9.200;2022-09-27T05:23:23;1.33;;;0.93;;
12118;SDS011;6123;48.864;9.200;2022-09-27T05:25:51;1.50;;;1.00;;
12118;SDS011;6123;48.864;9.200;2022-09-27T05:28:19;2.33;;;1.35;;
12118;SDS011;6123;48.864;9.200;2022-09-27T05:30:48;2.00;;;1.40;;
12118;SDS011;6123;48.864;9.200;2022-09-27T05:33:14;2.67;;;1.40;;
12118;SDS011;6123;48.864;9.200;2022-09-27T05:35:40;2.20;;;1.10;;
12118;SDS011;6123;48.864;9.200;2022-09-27T05:38:06;2.55;;;1.30;;
12118;SDS011;6123;48.864;9.200;2022-09-27T05:40:35;3.13;;;1.67;;
12118;SDS011;6123;48.864;9.200;2022-09-27T05:43:00;1.30;;;1.20;;
12118;SDS011;6123;48.864;9.200;2022-09-27T05:45:26;1.52;;;1.23;;
12118;SDS011;6123;48.864;9.200;2022-09-27T05:47:55;1.48;;;1.30;;
12118;SDS011;6123;48.864;9.200;2022-09-27T05:50:23;2.17;;;1.40;;
12118;SDS011;6123;48.864;9.200;2022-09-27T05:52:49;1.52;;;1.23;;
12118;SDS011;6123;48.864;9.200;2022-09-27T05:55:15;2.13;;;1.10;;
12118;SDS011;6123;48.864;9.200;2022-09-27T05:57:41;2.90;;;1.42;;
12118;SDS011;6123;48.864;9.200;2022-09-27T06:00:07;2.25;;;1.20;;
12118;SDS011;6123;48.864;9.200;2022-09-27T06:02:34;1.35;;;1.20;;
12118;SDS011;6123;48.864;9.200;2022-09-27T06:05:00;2.10;;;1.20;;
12118;SDS011;6123;48.864;9.200;2022-09-27T06:07:29;1.92;;;1.10;;
12118;SDS011;6123;48.864;9.200;2022-09-27T06:09:56;1.40;;;1.30;;
12118;SDS011;6123;48.864;9.200;2022-09-27T06:12:23;2.20;;;1.27;;
12118;SDS011;6123;48.864;9.200;2022-09-27T06:14:49;2.28;;;1.17;;
12118;SDS011;6123;48.864;9.200;2022-09-27T06:17:17;3.20;;;1.33;;
12118;SDS011;6123;48.864;9.200;2022-09-27T06:19:43;1.77;;;1.20;;
12118;SDS011;6123;48.864;9.200;2022-09-27T06:22:08;1.67;;;1.10;;
12118;SDS011;6123;48.864;9.200;2022-09-27T06:24:36;1.80;;;1.17;;
12118;SDS011;6123;48.864;9.200;2022-09-27T06:27:02;1.80;;;1.35;;
12118;SDS011;6123;48.864;9.200;2022-09-27T06:29:32;2.42;;;1.20;;
12118;SDS011;6123;48.864;9.200;2022-09-27T06:31:59;2.47;;;1.10;;
12118;SDS011;6123;48.864;9.200;2022-09-27T06:34:25;1.30;;;1.20;;
12118;SDS011;6123;48.864;9.200;2022-09-27T06:36:50;2.38;;;1.30;;
12118;SDS011;6123;48.864;9.200;2022-09-27T06:39:16;1.77;;;1.08;;
12118;SDS011;6123;48.864;9.200;2022-09-27T06:41:42;1.38;;;1.00;;
12118;SDS011;6123;48.864;9.200;2022-09-27T06:44:08;1.65;;;0.85;;
12118;SDS011;6123;48.864;9.200;2022-09-27T06:46:33;1.55;;;1.23;;
12118;SDS011;6123;48.864;9.200;2022-09-27T06:48:59;2.20;;;1.00;;
12118;SDS011;6123;48.864;9.200;2022-09-27T06:51:27;2.50;;;0.73;;
12118;SDS011;6123;48.864;9.200;2022-09-27T06:53:53;1.20;;;0.70;;
12118;SDS011;6123;48.864;9.200;2022-09-27T06:56:21;1.10;;;0.70;;
12118;SDS011;6123;48.864;9.200;2022-09-27T06:58:46;1.85;;;0.80;;
12118;SDS011;6123;48.864;9.200;2022-09-27T07:01:30;1.10;;;0.70;;
12118;SDS011;6123;48.864;9.200;2022-09-27T07:03:56;1.38;;;0.73;;
12118;SDS011;6123;48.864;9.200;2022-09-27T07:06:25;0.47;;;0.40;;
12118;SDS011;6123;48.864;9.200;2022-09-27T07:08:51;0.95;;;0.60;;
12118;SDS011;6123;48.864;9.200;2022-09-27T07:11:19;0.70;;;0.43;;
12118;SDS011;6123;48.864;9.200;2022-09-27T07:13:46;1.50;;;0.50;;
12118;SDS011;6123;48.864;9.200;2022-09-27T07:16:15;0.52;;;0.52;;
12118;SDS011;6123;48.864;9.200;2022-09-27T07:18:43;0.90;;;0.85;;
12118;SDS011;6123;48.864;9.200;2022-09-27T07:21:08;0.60;;;0.43;;
12118;SDS011;6123;48.864;9.200;2022-09-27T07:23:36;0.60;;;0.60;;
12118;SDS011;6123;48.864;9.200;2022-09-27T07:26:04;0.40;;;0.40;;
12118;SDS011;6123;48.864;9.200;2022-09-27T07:28:31;0.93;;;0.40;;
12118;SDS011;6123;48.864;9.200;2022-09-27T07:30:58;0.68;;;0.50;;
12118;SDS011;6123;48.864;9.200;2022-09-27T07:33:27;1.20;;;0.82;;
12118;SDS011;6123;48.864;9.200;2022-09-27T07:35:53;0.95;;;0.68;;
12118;SDS011;6123;48.864;9.200;2022-09-27T07:38:23;0.30;;;0.30;;
12118;SDS011;6123;48.864;9.200;2022-09-27T07:40:49;2.78;;;0.60;;
12118;SDS011;6123;48.864;9.200;2022-09-27T07:43:15;0.68;;;0.50;;
12118;SDS011;6123;48.864;9.200;2022-09-27T07:45:41;2.17;;;0.50;;
12118;SDS011;6123;48.864;9.200;2022-09-27T07:48:09;0.77;;;0.65;;
12118;SDS011;6123;48.864;9.200;2022-09-27T07:50:38;1.20;;;0.88;;
12118;SDS011;6123;48.864;9.200;2022-09-27T07:53:06;1.70;;;0.65;;
12118;SDS011;6123;48.864;9.200;2022-09-27T07:55:31;1.38;;;0.90;;
12118;SDS011;6123;48.864;9.200;2022-09-27T07:58:04;0.90;;;0.90;;
12118;SDS011;6123;48.864;9.200;2022-09-27T08:00:34;0.80;;;0.80;;
12118;SDS011;6123;48.864;9.200;2022-09-27T08:03:07;0.98;;;0.98;;
12118;SDS011;6123;48.864;9.200;2022-09-27T08:05:39;1.52;;;0.98;;
12118;SDS011;6123;48.864;9.200;2022-09-27T08:08:05;1.02;;;0.93;;
12118;SDS011;6123;48.864;9.200;2022-09-27T08:10:31;1.27;;;0.98;;
12118;SDS011;6123;48.864;9.200;2022-09-27T08:12:58;1.55;;;0.80;;
12118;SDS011;6123;48.864;9.200;2022-09-27T08:15:29;1.38;;;1.10;;
12118;SDS011;6123;48.864;9.200;2022-09-27T08:17:55;0.98;;;0.98;;
12118;SDS011;6123;48.864;9.200;2022-09-27T08:20:21;1.48;;;1.00;;
12118;SDS011;6123;48.864;9.200;2022-09-27T08:22:47;1.70;;;1.10;;
12118;SDS011;6123;48.864;9.200;2022-09-27T08:25:13;1.25;;;1.00;;
12118;SDS011;6123;48.864;9.200;2022-09-27T08:27:39;3.15;;;1.20;;
12118;SDS011;6123;48.864;9.200;2022-09-27T08:30:05;1.52;;;0.90;;
12118;SDS011;6123;48.864;9.200;2022-09-27T08:32:31;0.80;;;0.80;;
12118;SDS011;6123;48.864;9.200;2022-09-27T08:35:00;3.10;;;0.88;;
12118;SDS011;6123;48.864;9.200;2022-09-27T08:37:25;2.97;;;1.10;;
12118;SDS011;6123;48.864;9.200;2022-09-27T08:39:51;2.25;;;0.95;;
12118;SDS011;6123;48.864;9.200;2022-09-27T08:42:21;1.40;;;0.80;;
12118;SDS011;6123;48.864;9.200;2022-09-27T08:45:21;1.33;;;0.75;;
12118;SDS011;6123;48.864;9.200;2022-09-27T08:47:54;0.95;;;0.88;;
12118;SDS011;6123;48.864;9.200;2022-09-27T08:55:42;1.98;;;1.00;;
12118;SDS011;6123;48.864;9.200;2022-09-27T08:58:25;1.55;;;1.23;;
12118;SDS011;6123;48.864;9.200;2022-09-27T09:00:58;1.40;;;1.13;;
12118;SDS011;6123;48.864;9.200;2022-09-27T09:03:28;1.80;;;1.10;;
12118;SDS011;6123;48.864;9.200;2022-09-27T09:08:46;5.30;;;1.23;;
12118;SDS011;6123;48.864;9.200;2022-09-27T09:30:19;1.65;;;1.13;;
12118;SDS011;6123;48.864;9.200;2022-09-27T09:38:40;1.80;;;0.95;;
12118;SDS011;6123;48.864;9.200;2022-09-27T09:46:50;2.45;;;1.00;;
12118;SDS011;6123;48.864;9.200;2022-09-27T09:52:03;2.15;;;1.10;;
12118;SDS011;6123;48.864;9.200;2022-09-27T09:54:36;1.88;;;1.00;;
12118;SDS011;6123;48.864;9.200;2022-09-27T10:00:00;1.05;;;0.98;;
12118;SDS011;6123;48.864;9.200;2022-09-27T10:02:33;1.90;;;1.25;;
12118;SDS011;6123;48.864;9.200;2022-09-27T10:05:03;2.65;;;1.30;;
12118;SDS011;6123;48.864;9.200;2022-09-27T10:07:33;1.60;;;1.10;;
12118;SDS011;6123;48.864;9.200;2022-09-27T10:10:02;2.70;;;1.27;;
12118;SDS011;6123;48.864;9.200;2022-09-27T10:12:30;1.88;;;1.38;;
12118;SDS011;6123;48.864;9.200;2022-09-27T10:15:00;2.83;;;1.17;;
12118;SDS011;6123;48.864;9.200;2022-09-27T10:17:34;5.18;;;1.23;;
12118;SDS011;6123;48.864;9.200;2022-09-27T10:20:03;2.30;;;1.13;;
12118;SDS011;6123;48.864;9.200;2022-09-27T10:22:37;3.42;;;1.63;;
12118;SDS011;6123;48.864;9.200;2022-09-27T10:25:07;1.35;;;1.20;;
12118;SDS011;6123;48.864;9.200;2022-09-27T10:27:37;2.88;;;1.60;;
12118;SDS011;6123;48.864;9.200;2022-09-27T10:32:46;2.20;;;1.20;;
12118;SDS011;6123;48.864;9.200;2022-09-27T10:35:21;2.95;;;1.40;;
12118;SDS011;6123;48.864;9.200;2022-09-27T10:37:55;1.52;;;1.30;;
12118;SDS011;6123;48.864;9.200;2022-09-27T10:40:50;2.17;;;1.15;;
12118;SDS011;6123;48.864;9.200;2022-09-27T10:43:31;1.63;;;1.08;;
12118;SDS011;6123;48.864;9.200;2022-09-27T10:48:33;1.70;;;0.90;;
12118;SDS011;6123;48.864;9.200;2022-09-27T10:53:33;1.10;;;1.00;;
12118;SDS011;6123;48.864;9.200;2022-09-27T10:56:00;1.67;;;1.10;;
12118;SDS011;6123;48.864;9.200;2022-09-27T11:01:01;2.40;;;1.08;;
12118;SDS011;6123;48.864;9.200;2022-09-27T11:03:30;0.98;;;0.88;;
12118;SDS011;6123;48.864;9.200;2022-09-27T11:06:36;1.90;;;1.10;;
12118;SDS011;6123;48.864;9.200;2022-09-27T11:09:09;2.05;;;1.17;;
12118;SDS011;6123;48.864;9.200;2022-09-27T11:11:42;1.35;;;0.80;;
12118;SDS011;6123;48.864;9.200;2022-09-27T11:14:22;2.03;;;0.93;;
12118;SDS011;6123;48.864;9.200;2022-09-27T11:17:01;1.83;;;0.98;;
12118;SDS011;6123;48.864;9.200;2022-09-27T11:19:51;1.83;;;1.30;;
12118;SDS011;6123;48.864;9.200;2022-09-27T11:30:35;1.80;;;1.45;;
12118;SDS011;6123;48.864;9.200;2022-09-27T11:50:58;2.63;;;1.52;;
12118;SDS011;6123;48.864;9.200;2022-09-27T11:53:54;4.47;;;1.70;;
12118;SDS011;6123;48.864;9.200;2022-09-27T11:56:48;3.28;;;1.60;;
12118;SDS011;6123;48.864;9.200;2022-09-27T12:04:40;1.55;;;1.10;;
12118;SDS011;6123;48.864;9.200;2022-09-27T12:07:27;2.92;;;0.82;;
12118;SDS011;6123;48.864;9.200;2022-09-27T12:10:14;1.38;;;0.73;;
12118;SDS011;6123;48.864;9.200;2022-09-27T12:12:47;1.63;;;0.77;;
12118;SDS011;6123;48.864;9.200;2022-09-27T12:15:18;0.73;;;0.70;;
12118;SDS011;6123;48.864;9.200;2022-09-27T12:17:51;1.05;;;0.60;;
12118;SDS011;6123;48.864;9.200;2022-09-27T12:20:28;0.57;;;0.40;;
12118;SDS011;6123;48.864;9.200;2022-09-27T12:23:25;2.03;;;0.82;;
12118;SDS011;6123;48.864;9.200;2022-09-27T12:34:23;0.80;;;0.65;;
12118;SDS011;6123;48.864;9.200;2022-09-27T12:37:18;0.90;;;0.50;;
12118;SDS011;6123;48.864;9.200;2022-09-27T12:42:35;0.43;;;0.30;;
12118;SDS011;6123;48.864;9.200;2022-09-27T12:45:05;0.57;;;0.30;;
12118;SDS011;6123;48.864;9.200;2022-09-27T12:50:26;0.55;;;0.47;;
12118;SDS011;6123;48.864;9.200;2022-09-27T12:53:02;0.75;;;0.50;;
12118;SDS011;6123;48.864;9.200;2022-09-27T12:55:40;0.90;;;0.50;;
12118;SDS011;6123;48.864;9.200;2022-09-27T13:01:02;1.30;;;0.73;;
12118;SDS011;6123;48.864;9.200;2022-09-27T13:14:26;0.98;;;0.77;;
12118;SDS011;6123;48.864;9.200;2022-09-27T13:16:55;1.88;;;1.23;;
12118;SDS011;6123;48.864;9.200;2022-09-27T13:24:50;0.80;;;0.80;;
12118;SDS011;6123;48.864;9.200;2022-09-27T13:32:37;1.67;;;1.15;;
12118;SDS011;6123;48.864;9.200;2022-09-27T13:35:17;1.00;;;1.00;;
12118;SDS011;6123;48.864;9.200;2022-09-27T13:37:51;0.52;;;0.52;;
12118;SDS011;6123;48.864;9.200;2022-09-27T13:45:50;2.10;;;1.10;;
12118;SDS011;6123;48.864;9.200;2022-09-27T13:51:04;0.90;;;0.60;;
12118;SDS011;6123;48.864;9.200;2022-09-27T13:53:37;0.85;;;0.75;;
12118;SDS011;6123;48.864;9.200;2022-09-27T13:56:04;0.85;;;0.80;;
12118;SDS011;6123;48.864;9.200;2022-09-27T13:58:32;0.80;;;0.80;;
12118;SDS011;6123;48.864;9.200;2022-09-27T14:01:21;2.15;;;1.17;;
12118;SDS011;6123;48.864;9.200;2022-09-27T14:03:56;0.90;;;0.90;;
12118;SDS011;6123;48.864;9.200;2022-09-27T14:06:33;0.80;;;0.68;;
12118;SDS011;6123;48.864;9.200;2022-09-27T14:09:04;0.60;;;0.60;;
12118;SDS011;6123;48.864;9.200;2022-09-27T14:11:38;0.60;;;0.60;;
12118;SDS011;6123;48.864;9.200;2022-09-27T14:14:12;0.90;;;0.70;;
12118;SDS011;6123;48.864;9.200;2022-09-27T14:16:42;2.47;;;0.70;;
12118;SDS011;6123;48.864;9.200;2022-09-27T14:19:15;0.55;;;0.55;;
12118;SDS011;6123;48.864;9.200;2022-09-27T14:21:45;0.70;;;0.70;;
12118;SDS011;6123;48.864;9.200;2022-09-27T14:24:25;0.88;;;0.75;;
12118;SDS011;6123;48.864;9.200;2022-09-27T14:27:24;1.23;;;0.80;;
12118;SDS011;6123;48.864;9.200;2022-09-27T14:29:58;0.80;;;0.80;;
12118;SDS011;6123;48.864;9.200;2022-09-27T14:32:29;1.10;;;1.00;;
12118;SDS011;6123;48.864;9.200;2022-09-27T14:35:02;1.60;;;0.80;;
12118;SDS011;6123;48.864;9.200;2022-09-27T14:38:02;2.00;;;0.90;;
12118;SDS011;6123;48.864;9.200;2022-09-27T14:43:16;0.63;;;0.60;;
12118;SDS011;6123;48.864;9.200;2022-09-27T14:45:44;1.35;;;0.90;;
12118;SDS011;6123;48.864;9.200;2022-09-27T14:48:26;3.88;;;1.20;;
12118;SDS011;6123;48.864;9.200;2022-09-27T14:50:58;2.15;;;1.15;;
12118;SDS011;6123;48.864;9.200;2022-09-27T14:53:26;0.95;;;0.88;;
12118;SDS011;6123;48.864;9.200;2022-09-27T14:55:57;0.90;;;0.80;;
12118;SDS011;6123;48.864;9.200;2022-09-27T14:58:25;1.13;;;1.00;;
12118;SDS011;6123;48.864;9.200;2022-09-27T15:00:54;0.95;;;0.95;;
12118;SDS011;6123;48.864;9.200;2022-09-27T15:03:23;1.80;;;1.70;;
12118;SDS011;6123;48.864;9.200;2022-09-27T15:05:53;1.52;;;1.00;;
12118;SDS011;6123;48.864;9.200;2022-09-27T15:08:20;1.73;;;1.25;;
12118;SDS011;6123;48.864;9.200;2022-09-27T15:10:48;0.68;;;0.68;;
12118;SDS011;6123;48.864;9.200;2022-09-27T15:13:15;3.00;;;1.00;;
12118;SDS011;6123;48.864;9.200;2022-09-27T15:15:45;1.88;;;1.77;;
12118;SDS011;6123;48.864;9.200;2022-09-27T15:21:15;0.82;;;0.82;;
12118;SDS011;6123;48.864;9.200;2022-09-27T15:23:53;1.05;;;0.88;;
12118;SDS011;6123;48.864;9.200;2022-09-27T15:26:26;0.95;;;0.50;;
12118;SDS011;6123;48.864;9.200;2022-09-27T15:29:23;2.08;;;0.93;;
12118;SDS011;6123;48.864;9.200;2022-09-27T15:31:59;0.88;;;0.80;;
12118;SDS011;6123;48.864;9.200;2022-09-27T15:34:28;1.05;;;0.60;;
12118;SDS011;6123;48.864;9.200;2022-09-27T15:36:57;1.08;;;0.60;;
12118;SDS011;6123;48.864;9.200;2022-09-27T15:39:39;1.38;;;0.90;;
12118;SDS011;6123;48.864;9.200;2022-09-27T15:42:09;1.08;;;0.60;;
12118;SDS011;6123;48.864;9.200;2022-09-27T15:52:43;0.77;;;0.60;;
12118;SDS011;6123;48.864;9.200;2022-09-27T15:55:13;2.17;;;1.13;;
12118;SDS011;6123;48.864;9.200;2022-09-27T15:57:41;0.95;;;0.50;;
12118;SDS011;6123;48.864;9.200;2022-09-27T16:00:15;0.52;;;0.52;;
12118;SDS011;6123;48.864;9.200;2022-09-27T16:02:42;0.70;;;0.70;;
12118;SDS011;6123;48.864;9.200;2022-09-27T16:05:08;0.73;;;0.70;;
12118;SDS011;6123;48.864;9.200;2022-09-27T16:07:34;0.75;;;0.75;;
12118;SDS011;6123;48.864;9.200;2022-09-27T16:10:00;1.33;;;1.20;;
12118;SDS011;6123;48.864;9.200;2022-09-27T16:12:25;1.30;;;1.20;;
12118;SDS011;6123;48.864;9.200;2022-09-27T16:14:54;4.32;;;0.98;;
12118;SDS011;6123;48.864;9.200;2022-09-27T16:17:20;1.30;;;1.00;;
12118;SDS011;6123;48.864;9.200;2022-09-27T16:19:46;1.17;;;1.08;;
12118;SDS011;6123;48.864;9.200;2022-09-27T16:22:12;0.95;;;0.85;;
12118;SDS011;6123;48.864;9.200;2022-09-27T16:24:38;0.80;;;0.47;;
12118;SDS011;6123;48.864;9.200;2022-09-27T16:27:03;1.55;;;0.80;;
12118;SDS011;6123;48.864;9.200;2022-09-27T16:29:29;1.30;;;0.57;;
12118;SDS011;6123;48.864;9.200;2022-09-27T16:31:55;1.40;;;0.90;;
12118;SDS011;6123;48.864;9.200;2022-09-27T16:34:21;1.55;;;0.80;;
12118;SDS011;6123;48.864;9.200;2022-09-27T16:36:48;1.67;;;0.90;;
12118;SDS011;6123;48.864;9.200;2022-09-27T16:39:14;2.33;;;1.40;;
12118;SDS011;6123;48.864;9.200;2022-09-27T16:41:39;2.72;;;1.08;;
12118;SDS011;6123;48.864;9.200;2022-09-27T16:44:11;1.33;;;1.10;;
12118;SDS011;6123;48.864;9.200;2022-09-27T16:46:41;1.42;;;0.90;;
12118;SDS011;6123;48.864;9.200;2022-09-27T16:49:10;0.98;;;0.90;;
12118;SDS011;6123;48.864;9.200;2022-09-27T16:51:56;1.65;;;1.00;;
12118;SDS011;6123;48.864;9.200;2022-09-27T16:54:27;1.25;;;1.15;;
12118;SDS011;6123;48.864;9.200;2022-09-27T16:56:54;2.35;;;1.15;;
12118;SDS011;6123;48.864;9.200;2022-09-27T16:59:20;1.42;;;1.13;;
12118;SDS011;6123;48.864;9.200;2022-09-27T17:01:46;1.00;;;0.60;;
12118;SDS011;6123;48.864;9.200;2022-09-27T17:04:12;1.23;;;0.90;;
12118;SDS011;6123;48.864;9.200;2022-09-27T17:06:41;0.95;;;0.80;;
12118;SDS011;6123;48.864;9.200;2022-09-27T17:09:06;1.23;;;0.77;;
12118;SDS011;6123;48.864;9.200;2022-09-27T17:11:32;1.45;;;1.00;;
12118;SDS011;6123;48.864;9.200;2022-09-27T17:13:58;1.60;;;0.80;;
12118;SDS011;6123;48.864;9.200;2022-09-27T17:16:24;2.40;;;1.02;;
12118;SDS011;6123;48.864;9.200;2022-09-27T17:18:52;1.77;;;1.15;;
12118;SDS011;6123;48.864;9.200;2022-09-27T17:21:17;1.48;;;0.65;;
12118;SDS011;6123;48.864;9.200;2022-09-27T17:23:43;0.80;;;0.75;;
12118;SDS011;6123;48.864;9.200;2022-09-27T17:28:42;3.33;;;2.70;;
12118;SDS011;6123;48.864;9.200;2022-09-27T17:31:10;1.83;;;1.30;;
12118;SDS011;6123;48.864;9.200;2022-09-27T17:33:40;2.42;;;1.05;;
12118;SDS011;6123;48.864;9.200;2022-09-27T17:36:33;2.97;;;1.13;;
12118;SDS011;6123;48.864;9.200;2022-09-27T17:39:01;1.58;;;1.10;;
12118;SDS011;6123;48.864;9.200;2022-09-27T17:41:28;2.10;;;1.25;;
12118;SDS011;6123;48.864;9.200;2022-09-27T17:43:55;5.13;;;4.50;;
12118;SDS011;6123;48.864;9.200;2022-09-27T17:46:35;2.38;;;1.10;;
12118;SDS011;6123;48.864;9.200;2022-09-27T17:49:03;1.05;;;0.90;;
12118;SDS011;6123;48.864;9.200;2022-09-27T17:51:48;1.92;;;1.50;;
12118;SDS011;6123;48.864;9.200;2022-09-27T17:54:18;2.20;;;1.35;;
12118;SDS011;6123;48.864;9.200;2022-09-27T17:56:46;2.97;;;2.30;;
12118;SDS011;6123;48.864;9.200;2022-09-27T17:59:16;2.03;;;1.08;;
12118;SDS011;6123;48.864;9.200;2022-09-27T18:01:43;4.25;;;1.92;;
12118;SDS011;6123;48.864;9.200;2022-09-27T18:04:12;3.50;;;1.10;;
12118;SDS011;6123;48.864;9.200;2022-09-27T18:06:40;2.10;;;1.13;;
12118;SDS011;6123;48.864;9.200;2022-09-27T18:09:08;1.50;;;1.40;;
12118;SDS011;6123;48.864;9.200;2022-09-27T18:11:36;3.22;;;1.42;;
12118;SDS011;6123;48.864;9.200;2022-09-27T18:14:04;1.73;;;1.30;;
12118;SDS011;6123;48.864;9.200;2022-09-27T18:16:36;2.20;;;1.30;;
12118;SDS011;6123;48.864;9.200;2022-09-27T18:19:04;1.23;;;1.13;;
12118;SDS011;6123;48.864;9.200;2022-09-27T18:21:34;2.03;;;1.20;;
12118;SDS011;6123;48.864;9.200;2022-09-27T18:24:00;1.08;;;0.80;;
12118;SDS011;6123;48.864;9.200;2022-09-27T18:26:30;0.88;;;0.60;;
12118;SDS011;6123;48.864;9.200;2022-09-27T18:29:01;1.05;;;0.85;;
12118;SDS011;6123;48.864;9.200;2022-09-27T18:31:30;1.15;;;0.60;;
12118;SDS011;6123;48.864;9.200;2022-09-27T18:33:55;1.25;;;0.75;;
12118;SDS011;6123;48.864;9.200;2022-09-27T18:36:25;1.27;;;0.80;;
12118;SDS011;6123;48.864;9.200;2022-09-27T18:39:03;1.77;;;1.00;;